Time;durP1;ratioP1;P1;durP2;ratioP2;P2;SDS_P1;SDS_P2;PMS_P1;PMS_P2;Temp;Humidity;BMP_temperature;BMP_pressure;BME280_temperature;BME280_humidity;BME280_pressure;Samples;Min_cycle;Max_cycle;Signal;HPM_P1;HPM_P2
2023/03/26 00:00:43;;;;;;;4.97;1.00;;;;;;;;;;4993190;28;20029;-78
2023/03/26 00:03:12;;;;;;;2.67;1.30;;;;;;;;;;4992681;28;20109;-79
2023/03/26 00:05:38;;;;;;;3.03;0.73;;;;;;;;;;4991709;28;20060;-79
2023/03/26 00:08:07;;;;;;;2.70;0.67;;;;;;;;;;4992511;28;20042;-79
2023/03/26 00:10:35;;;;;;;2.87;0.80;;;;;;;;;;4992491;28;20050;-78
2023/03/26 00:13:00;;;;;;;1.70;1.00;;;;;;;;;;4991248;28;20061;-79
2023/03/26 00:15:26;;;;;;;3.63;1.20;;;;;;;;;;4991391;28;20057;-79
2023/03/26 00:17:53;;;;;;;2.07;0.80;;;;;;;;;;4993535;28;20030;-79
2023/03/26 00:20:19;;;;;;;4.03;0.60;;;;;;;;;;4993045;28;20121;-80
2023/03/26 00:22:44;;;;;;;4.60;1.23;;;;;;;;;;4995333;28;20052;-77
2023/03/26 00:25:10;;;;;;;3.57;0.80;;;;;;;;;;4995497;28;20434;-79
2023/03/26 00:27:35;;;;;;;6.20;1.30;;;;;;;;;;4991302;28;20030;-79
2023/03/26 00:30:03;;;;;;;3.00;0.93;;;;;;;;;;4991042;28;20056;-79
2023/03/26 00:32:30;;;;;;;2.47;0.83;;;;;;;;;;4991212;28;20026;-79
2023/03/26 00:35:00;;;;;;;2.20;0.70;;;;;;;;;;4991435;28;20083;-79
2023/03/26 00:37:26;;;;;;;1.10;0.67;;;;;;;;;;4992878;28;20022;-79
2023/03/26 00:39:58;;;;;;;2.50;0.90;;;;;;;;;;4991250;28;20027;-79
2023/03/26 00:42:27;;;;;;;1.58;0.60;;;;;;;;;;4990774;28;20018;-79
2023/03/26 00:44:57;;;;;;;5.03;1.07;;;;;;;;;;4991290;28;20032;-79
2023/03/26 00:47:27;;;;;;;2.67;0.80;;;;;;;;;;4993972;28;20023;-79
2023/03/26 00:49:53;;;;;;;2.23;0.60;;;;;;;;;;4999634;28;20052;-78
2023/03/26 00:52:19;;;;;;;4.83;0.70;;;;;;;;;;4996114;28;20467;-78
2023/03/26 00:54:46;;;;;;;1.60;0.60;;;;;;;;;;4995486;28;20110;-78
2023/03/26 00:57:13;;;;;;;3.80;0.77;;;;;;;;;;4993429;28;20031;-78
2023/03/26 00:59:40;;;;;;;6.63;0.57;;;;;;;;;;4994357;28;20037;-78
2023/03/26 01:02:09;;;;;;;4.83;1.10;;;;;;;;;;5000993;28;20027;-79
2023/03/26 01:04:36;;;;;;;4.00;0.73;;;;;;;;;;4999008;28;20497;-78
2023/03/26 01:07:15;;;;;;;3.90;0.77;;;;;;;;;;5001545;28;20037;-79
2023/03/26 01:09:44;;;;;;;0.50;0.50;;;;;;;;;;4996040;28;20475;-78
2023/03/26 01:12:14;;;;;;;4.27;0.83;;;;;;;;;;4996399;28;20447;-78
2023/03/26 01:14:40;;;;;;;1.93;0.73;;;;;;;;;;4996015;28;20756;-79
2023/03/26 01:17:07;;;;;;;6.00;0.90;;;;;;;;;;4995274;28;20053;-78
2023/03/26 01:20:13;;;;;;;6.10;0.70;;;;;;;;;;4991077;28;20049;-78
2023/03/26 01:22:43;;;;;;;1.40;0.50;;;;;;;;;;4990404;28;20018;-78
2023/03/26 01:25:08;;;;;;;2.97;0.77;;;;;;;;;;4990418;28;20025;-78
2023/03/26 01:27:48;;;;;;;1.37;0.40;;;;;;;;;;4991332;28;20386;-78
2023/03/26 01:30:24;;;;;;;4.43;1.23;;;;;;;;;;4990122;28;20030;-79
2023/03/26 01:33:15;;;;;;;4.27;1.17;;;;;;;;;;4993085;28;20022;-80
2023/03/26 01:35:53;;;;;;;3.03;0.60;;;;;;;;;;4998608;28;20098;-79
2023/03/26 01:38:34;;;;;;;1.77;0.70;;;;;;;;;;4999896;28;20033;-79
2023/03/26 01:41:08;;;;;;;4.07;1.03;;;;;;;;;;4998025;28;20030;-79
2023/03/26 01:43:50;;;;;;;1.67;0.77;;;;;;;;;;5001071;28;20045;-79
2023/03/26 01:46:18;;;;;;;0.93;0.45;;;;;;;;;;4998938;28;20027;-80
2023/03/26 01:48:45;;;;;;;3.13;0.90;;;;;;;;;;5001322;28;20444;-79
2023/03/26 01:51:12;;;;;;;3.90;0.83;;;;;;;;;;4994478;28;20106;-79
2023/03/26 01:53:44;;;;;;;1.07;0.77;;;;;;;;;;4990981;28;20030;-79
2023/03/26 01:56:14;;;;;;;3.10;0.68;;;;;;;;;;4990018;28;20125;-79
2023/03/26 01:58:53;;;;;;;2.57;0.80;;;;;;;;;;4991260;28;20355;-80
2023/03/26 02:01:53;;;;;;;2.27;0.60;;;;;;;;;;4991006;28;20022;-78
2023/03/26 02:04:39;;;;;;;2.13;0.63;;;;;;;;;;4990858;28;20053;-79
2023/03/26 02:07:10;;;;;;;3.23;0.70;;;;;;;;;;4991366;28;20034;-79
2023/03/26 02:09:46;;;;;;;2.88;0.93;;;;;;;;;;4990780;28;20026;-79
2023/03/26 02:12:16;;;;;;;1.77;1.00;;;;;;;;;;4994008;28;20551;-79
2023/03/26 02:14:43;;;;;;;4.93;1.10;;;;;;;;;;4993590;28;20528;-79
2023/03/26 02:17:10;;;;;;;2.20;1.00;;;;;;;;;;4993373;28;20662;-79
2023/03/26 02:19:40;;;;;;;4.13;0.90;;;;;;;;;;4994651;28;20130;-79
2023/03/26 02:22:10;;;;;;;1.20;0.70;;;;;;;;;;4993573;28;20202;-79
2023/03/26 02:24:37;;;;;;;5.70;1.00;;;;;;;;;;4993364;28;20030;-79
2023/03/26 02:27:06;;;;;;;3.87;0.80;;;;;;;;;;4992909;28;20064;-79
2023/03/26 02:29:36;;;;;;;2.23;0.63;;;;;;;;;;4992637;28;20030;-79
2023/03/26 02:32:03;;;;;;;4.53;0.97;;;;;;;;;;4995121;28;20026;-79
2023/03/26 02:34:29;;;;;;;2.77;0.70;;;;;;;;;;4993005;28;20037;-79
2023/03/26 02:36:56;;;;;;;2.30;1.30;;;;;;;;;;4994315;28;20398;-79
2023/03/26 02:39:22;;;;;;;2.93;0.60;;;;;;;;;;4993785;28;20515;-80
2023/03/26 02:41:47;;;;;;;1.17;0.70;;;;;;;;;;4993811;28;20030;-79
2023/03/26 02:44:13;;;;;;;3.40;0.77;;;;;;;;;;4993115;28;20085;-79
2023/03/26 02:46:38;;;;;;;1.73;0.63;;;;;;;;;;4994349;28;20696;-78
2023/03/26 02:49:04;;;;;;;3.90;1.00;;;;;;;;;;4994763;28;20489;-79
2023/03/26 02:51:33;;;;;;;2.57;0.53;;;;;;;;;;5001674;28;20418;-80
2023/03/26 02:54:00;;;;;;;1.27;0.60;;;;;;;;;;4993224;28;20082;-79
2023/03/26 02:56:25;;;;;;;1.03;0.60;;;;;;;;;;4992664;28;20390;-79
2023/03/26 02:58:51;;;;;;;3.07;0.60;;;;;;;;;;4995379;28;20081;-77
2023/03/26 03:01:17;;;;;;;5.97;1.07;;;;;;;;;;4994303;28;20030;-80
2023/03/26 03:03:42;;;;;;;2.67;1.00;;;;;;;;;;4993661;28;20053;-80
2023/03/26 03:06:08;;;;;;;2.57;1.10;;;;;;;;;;4993064;28;20032;-78
2023/03/26 03:08:34;;;;;;;5.27;1.10;;;;;;;;;;4992679;28;20033;-79
2023/03/26 03:11:10;;;;;;;2.50;0.73;;;;;;;;;;4993861;28;20039;-79
2023/03/26 03:13:36;;;;;;;2.60;0.83;;;;;;;;;;4992095;28;20073;-79
2023/03/26 03:16:02;;;;;;;3.77;0.77;;;;;;;;;;4992118;28;20072;-80
2023/03/26 03:18:27;;;;;;;4.10;1.00;;;;;;;;;;4991639;28;20030;-79
2023/03/26 03:20:53;;;;;;;4.00;0.80;;;;;;;;;;4991949;28;20081;-79
2023/03/26 03:23:19;;;;;;;4.10;0.90;;;;;;;;;;4991423;28;20054;-78
2023/03/26 03:25:45;;;;;;;1.23;0.53;;;;;;;;;;4994613;28;20045;-79
2023/03/26 03:28:12;;;;;;;6.60;1.20;;;;;;;;;;4993696;28;20427;-79
2023/03/26 03:30:38;;;;;;;5.43;1.30;;;;;;;;;;4992246;28;20489;-79
2023/03/26 03:33:04;;;;;;;1.70;0.90;;;;;;;;;;4992809;28;20162;-79
2023/03/26 03:35:32;;;;;;;1.50;0.80;;;;;;;;;;4992855;28;20026;-79
2023/03/26 03:37:58;;;;;;;6.03;1.00;;;;;;;;;;4992849;28;20034;-79
2023/03/26 03:40:24;;;;;;;2.23;0.60;;;;;;;;;;4978780;28;20026;-79
2023/03/26 03:42:50;;;;;;;2.67;0.73;;;;;;;;;;4971988;28;20026;-79
2023/03/26 03:45:16;;;;;;;2.50;1.10;;;;;;;;;;4973807;28;20035;-79
2023/03/26 03:47:42;;;;;;;5.07;1.23;;;;;;;;;;4973576;28;20484;-79
2023/03/26 03:50:09;;;;;;;3.47;0.87;;;;;;;;;;4972245;28;20098;-79
2023/03/26 03:52:35;;;;;;;2.00;0.70;;;;;;;;;;4974073;28;20034;-80
2023/03/26 03:55:00;;;;;;;3.10;0.80;;;;;;;;;;4971959;28;20026;-78
2023/03/26 03:57:27;;;;;;;4.03;0.70;;;;;;;;;;4973222;28;20105;-78
2023/03/26 03:59:56;;;;;;;5.10;1.03;;;;;;;;;;4972991;28;20015;-78
2023/03/26 04:02:29;;;;;;;3.20;0.80;;;;;;;;;;4972270;28;20037;-79
2023/03/26 04:04:56;;;;;;;3.20;0.70;;;;;;;;;;4973540;28;20019;-79
2023/03/26 04:07:23;;;;;;;2.90;0.77;;;;;;;;;;4972041;28;20056;-79
2023/03/26 04:09:49;;;;;;;1.90;0.83;;;;;;;;;;4971913;28;20026;-79
2023/03/26 04:12:15;;;;;;;4.77;1.30;;;;;;;;;;4973499;28;20027;-79
2023/03/26 04:14:40;;;;;;;3.93;1.83;;;;;;;;;;4972035;28;20073;-79
2023/03/26 04:17:06;;;;;;;4.87;1.00;;;;;;;;;;4972242;28;20030;-79
2023/03/26 04:19:31;;;;;;;2.00;0.70;;;;;;;;;;4974865;28;20046;-79
2023/03/26 04:22:01;;;;;;;8.37;0.93;;;;;;;;;;4973221;28;20066;-79
2023/03/26 04:24:28;;;;;;;2.30;0.87;;;;;;;;;;4973103;28;20026;-79
2023/03/26 04:26:57;;;;;;;6.40;1.07;;;;;;;;;;4973773;28;20466;-79
2023/03/26 04:29:26;;;;;;;3.43;0.97;;;;;;;;;;4956046;28;20134;-79
2023/03/26 04:32:05;;;;;;;2.37;0.67;;;;;;;;;;4971925;28;20523;-79
2023/03/26 04:34:32;;;;;;;6.00;0.90;;;;;;;;;;4971444;28;20061;-79
2023/03/26 04:37:00;;;;;;;5.30;1.00;;;;;;;;;;4972750;28;20031;-79
2023/03/26 04:39:29;;;;;;;5.87;0.87;;;;;;;;;;4974581;28;20050;-79
2023/03/26 04:41:56;;;;;;;1.07;0.70;;;;;;;;;;4974042;28;20058;-79
2023/03/26 04:44:22;;;;;;;4.10;0.80;;;;;;;;;;4975633;28;20073;-79
2023/03/26 04:46:51;;;;;;;8.77;1.30;;;;;;;;;;4978755;28;20031;-78
2023/03/26 04:49:17;;;;;;;3.33;1.17;;;;;;;;;;4981921;28;20058;-79
2023/03/26 04:51:45;;;;;;;2.47;1.07;;;;;;;;;;4982096;28;20046;-78
2023/03/26 04:54:12;;;;;;;13.03;1.60;;;;;;;;;;4974975;28;20114;-79
2023/03/26 04:56:50;;;;;;;2.67;0.97;;;;;;;;;;4975633;28;20031;-80
2023/03/26 04:59:33;;;;;;;2.63;0.80;;;;;;;;;;4976443;28;20054;-78
2023/03/26 05:02:03;;;;;;;3.60;1.13;;;;;;;;;;4973242;28;20550;-80
2023/03/26 05:04:29;;;;;;;3.23;1.13;;;;;;;;;;4972262;28;20052;-77
2023/03/26 05:06:57;;;;;;;7.87;1.93;;;;;;;;;;4971350;28;20121;-78
2023/03/26 05:09:26;;;;;;;6.10;0.90;;;;;;;;;;4971183;28;20041;-79
2023/03/26 05:11:52;;;;;;;3.93;0.80;;;;;;;;;;4970822;28;20032;-78
2023/03/26 05:14:18;;;;;;;2.20;0.67;;;;;;;;;;4972021;28;20093;-79
2023/03/26 05:16:46;;;;;;;3.97;1.10;;;;;;;;;;4970714;28;20080;-78
2023/03/26 05:19:13;;;;;;;3.80;1.07;;;;;;;;;;4971645;28;20058;-78
2023/03/26 05:21:38;;;;;;;4.97;1.03;;;;;;;;;;4971846;28;20034;-79
2023/03/26 05:24:05;;;;;;;14.67;1.60;;;;;;;;;;4971967;28;20536;-80
2023/03/26 05:26:35;;;;;;;2.80;0.97;;;;;;;;;;4970397;28;20628;-80
2023/03/26 05:29:01;;;;;;;2.23;1.13;;;;;;;;;;4972200;28;20034;-80
2023/03/26 05:31:29;;;;;;;6.43;1.10;;;;;;;;;;4971505;28;20034;-78
2023/03/26 05:33:56;;;;;;;6.63;1.00;;;;;;;;;;4971672;28;20375;-78
2023/03/26 05:36:22;;;;;;;6.60;0.90;;;;;;;;;;4972174;28;20022;-79
2023/03/26 05:38:49;;;;;;;2.80;1.00;;;;;;;;;;4971682;28;20461;-79
2023/03/26 05:41:15;;;;;;;4.13;1.20;;;;;;;;;;4971959;28;20464;-79
2023/03/26 05:43:43;;;;;;;4.63;1.00;;;;;;;;;;4972094;28;20033;-79
2023/03/26 05:46:10;;;;;;;2.80;0.80;;;;;;;;;;4976277;28;20034;-78
2023/03/26 05:48:36;;;;;;;3.80;0.77;;;;;;;;;;4976704;28;20541;-78
2023/03/26 05:51:03;;;;;;;5.07;1.43;;;;;;;;;;4976660;28;20216;-78
2023/03/26 05:53:29;;;;;;;4.63;0.93;;;;;;;;;;4975728;28;20031;-79
2023/03/26 05:55:58;;;;;;;3.23;0.93;;;;;;;;;;4975213;28;20031;-79
2023/03/26 05:58:25;;;;;;;4.70;0.77;;;;;;;;;;4974586;28;20102;-80
2023/03/26 06:01:07;;;;;;;3.53;0.87;;;;;;;;;;4974616;28;20034;-79
2023/03/26 06:03:35;;;;;;;;;;;;;;;;;;4975041;28;20129;-79
2023/03/26 06:06:00;;;;;;;5.73;0.80;;;;;;;;;;4976325;28;19910;-78
2023/03/26 06:08:26;;;;;;;3.93;1.07;;;;;;;;;;4975768;28;20031;-79
2023/03/26 06:11:04;;;;;;;4.87;1.03;;;;;;;;;;4975539;28;20068;-78
2023/03/26 06:13:30;;;;;;;3.37;0.60;;;;;;;;;;4975332;28;20093;-79
2023/03/26 06:15:57;;;;;;;3.77;1.43;;;;;;;;;;4974072;28;20035;-79
2023/03/26 06:18:23;;;;;;;5.78;1.52;;;;;;;;;;4990122;28;20034;-78
2023/03/26 06:20:50;;;;;;;3.83;1.10;;;;;;;;;;4973546;28;20081;-79
2023/03/26 06:23:16;;;;;;;3.35;0.73;;;;;;;;;;4975372;28;20035;-79
2023/03/26 06:25:43;;;;;;;2.95;2.15;;;;;;;;;;4973918;28;20042;-79
2023/03/26 06:28:08;;;;;;;1.93;1.00;;;;;;;;;;4975169;28;20084;-78
2023/03/26 06:30:34;;;;;;;2.78;1.00;;;;;;;;;;4975037;28;20079;-79
2023/03/26 06:33:00;;;;;;;7.43;0.90;;;;;;;;;;4974735;28;20556;-80
2023/03/26 06:35:28;;;;;;;5.82;1.27;;;;;;;;;;4976553;28;20030;-79
2023/03/26 06:37:54;;;;;;;2.30;0.70;;;;;;;;;;4992983;28;20034;-79
2023/03/26 06:40:20;;;;;;;7.35;1.10;;;;;;;;;;4980315;28;20031;-79
2023/03/26 06:42:45;;;;;;;5.95;0.90;;;;;;;;;;4982428;28;20031;-79
2023/03/26 06:45:11;;;;;;;1.88;0.70;;;;;;;;;;4994659;28;20399;-78
2023/03/26 06:47:36;;;;;;;4.63;0.95;;;;;;;;;;4989147;28;20041;-79
2023/03/26 06:50:03;;;;;;;3.55;0.77;;;;;;;;;;4990768;28;20125;-80
2023/03/26 06:52:28;;;;;;;3.88;0.90;;;;;;;;;;4982403;28;20086;-80
2023/03/26 06:54:54;;;;;;;4.78;1.08;;;;;;;;;;4974469;28;20111;-80
2023/03/26 06:57:20;;;;;;;2.90;0.98;;;;;;;;;;4957642;28;20034;-79
2023/03/26 06:59:45;;;;;;;2.42;0.75;;;;;;;;;;4974913;28;20030;-79
2023/03/26 07:02:12;;;;;;;5.45;0.90;;;;;;;;;;4980432;28;20019;-78
2023/03/26 07:04:37;;;;;;;5.63;0.70;;;;;;;;;;4974838;28;20094;-79
2023/03/26 07:07:03;;;;;;;7.82;1.08;;;;;;;;;;4974426;28;20097;-80
2023/03/26 07:09:29;;;;;;;3.85;1.00;;;;;;;;;;4973213;28;20062;-79
2023/03/26 07:11:56;;;;;;;4.72;1.25;;;;;;;;;;4973109;28;20034;-79
2023/03/26 07:14:23;;;;;;;4.95;0.75;;;;;;;;;;4973423;28;20447;-79
2023/03/26 07:16:50;;;;;;;6.22;1.13;;;;;;;;;;4973521;28;20035;-80
2023/03/26 07:19:15;;;;;;;3.90;1.40;;;;;;;;;;4973750;28;20541;-81
2023/03/26 07:21:41;;;;;;;5.50;0.90;;;;;;;;;;4973488;28;20022;-78
2023/03/26 07:24:11;;;;;;;3.33;1.08;;;;;;;;;;4973383;28;20027;-78
2023/03/26 07:26:55;;;;;;;9.98;1.02;;;;;;;;;;4973001;28;20117;-80
2023/03/26 07:29:24;;;;;;;5.20;1.05;;;;;;;;;;4973780;28;20058;-78
2023/03/26 07:32:28;;;;;;;5.25;0.98;;;;;;;;;;4974555;28;20042;-80
2023/03/26 07:35:07;;;;;;;5.65;1.20;;;;;;;;;;4991014;28;20034;-78
2023/03/26 07:37:47;;;;;;;4.72;0.80;;;;;;;;;;4974717;28;20061;-79
2023/03/26 07:40:42;;;;;;;3.45;1.35;;;;;;;;;;4982943;28;20097;-80
2023/03/26 07:43:13;;;;;;;3.60;0.98;;;;;;;;;;4985065;28;20098;-78
2023/03/26 07:45:42;;;;;;;5.13;0.90;;;;;;;;;;4983311;28;20073;-79
2023/03/26 07:48:26;;;;;;;5.88;1.23;;;;;;;;;;4979868;28;20034;-79
2023/03/26 07:50:55;;;;;;;2.00;1.15;;;;;;;;;;4974799;28;20026;-80
2023/03/26 07:53:22;;;;;;;7.35;1.63;;;;;;;;;;4974800;28;20031;-79
2023/03/26 07:56:03;;;;;;;11.07;1.48;;;;;;;;;;4975145;28;20030;-79
2023/03/26 07:58:46;;;;;;;3.30;0.93;;;;;;;;;;4973720;28;20077;-81
2023/03/26 08:01:44;;;;;;;3.42;0.75;;;;;;;;;;4974279;28;20026;-79
2023/03/26 08:04:41;;;;;;;2.45;0.88;;;;;;;;;;4972889;28;20046;-80
2023/03/26 08:07:28;;;;;;;4.68;1.20;;;;;;;;;;4974196;28;20025;-80
2023/03/26 08:10:34;;;;;;;5.57;1.00;;;;;;;;;;4974002;28;20085;-78
2023/03/26 08:13:15;;;;;;;3.53;0.90;;;;;;;;;;4977962;28;20113;-79
2023/03/26 08:16:06;;;;;;;2.13;0.90;;;;;;;;;;4973298;28;20402;-80
2023/03/26 08:18:53;;;;;;;3.95;1.35;;;;;;;;;;4972296;28;20030;-79
2023/03/26 08:21:27;;;;;;;7.70;1.30;;;;;;;;;;4974561;28;20039;-80
2023/03/26 08:24:29;;;;;;;10.02;1.27;;;;;;;;;;4974770;28;20034;-80
2023/03/26 08:26:56;;;;;;;5.85;0.98;;;;;;;;;;4968187;28;20046;-80
2023/03/26 08:29:44;;;;;;;6.57;1.23;;;;;;;;;;4974031;28;20039;-80
2023/03/26 08:32:15;;;;;;;5.55;1.00;;;;;;;;;;4973149;28;20050;-79
2023/03/26 08:34:41;;;;;;;7.47;1.10;;;;;;;;;;4971758;28;20419;-79
2023/03/26 08:37:08;;;;;;;2.75;1.00;;;;;;;;;;4972139;28;20126;-81
2023/03/26 08:39:36;;;;;;;6.07;0.90;;;;;;;;;;4973402;28;20081;-80
2023/03/26 08:42:26;;;;;;;4.38;0.80;;;;;;;;;;4975272;28;20030;-80
2023/03/26 08:45:10;;;;;;;2.58;0.82;;;;;;;;;;4982005;28;20061;-80
2023/03/26 08:48:07;;;;;;;7.55;1.10;;;;;;;;;;4980569;28;20022;-79
2023/03/26 08:50:44;;;;;;;8.05;1.08;;;;;;;;;;4973313;28;20137;-78
2023/03/26 08:53:24;;;;;;;1.67;1.00;;;;;;;;;;4973438;28;20030;-79
2023/03/26 08:56:05;;;;;;;4.35;0.80;;;;;;;;;;4974044;28;20027;-80
2023/03/26 08:59:00;;;;;;;4.50;1.20;;;;;;;;;;4973430;28;20030;-79
2023/03/26 09:01:28;;;;;;;4.97;0.73;;;;;;;;;;4972726;28;20026;-80
2023/03/26 09:04:28;;;;;;;6.10;1.20;;;;;;;;;;4976170;28;20041;-79
2023/03/26 09:07:31;;;;;;;5.28;0.90;;;;;;;;;;4984091;28;20058;-79
2023/03/26 09:09:56;;;;;;;5.88;0.80;;;;;;;;;;4977304;28;20473;-80
2023/03/26 09:12:46;;;;;;;1.95;0.82;;;;;;;;;;4974423;28;20031;-80
2023/03/26 09:15:40;;;;;;;4.25;1.23;;;;;;;;;;4971387;28;20015;-79
2023/03/26 09:18:25;;;;;;;3.90;1.25;;;;;;;;;;4971737;28;20031;-80
2023/03/26 09:21:14;;;;;;;2.63;0.73;;;;;;;;;;4971051;28;20051;-80
2023/03/26 09:23:54;;;;;;;2.33;0.45;;;;;;;;;;4971898;28;20078;-79
2023/03/26 09:26:36;;;;;;;4.53;0.82;;;;;;;;;;4973264;28;20043;-80
2023/03/26 09:29:20;;;;;;;3.47;1.10;;;;;;;;;;4973253;28;20487;-80
2023/03/26 09:32:04;;;;;;;7.72;1.10;;;;;;;;;;4972175;28;20444;-80
2023/03/26 09:34:32;;;;;;;3.70;1.88;;;;;;;;;;4972514;28;20023;-80
2023/03/26 09:37:23;;;;;;;2.80;0.60;;;;;;;;;;4971791;28;20045;-80
2023/03/26 09:39:51;;;;;;;8.20;1.03;;;;;;;;;;4981477;28;20029;-80
2023/03/26 09:42:43;;;;;;;5.10;1.23;;;;;;;;;;4990249;28;20022;-79
2023/03/26 09:45:37;;;;;;;4.65;0.77;;;;;;;;;;4990369;28;20333;-80
2023/03/26 09:48:08;;;;;;;3.83;0.70;;;;;;;;;;4989959;28;20034;-80
2023/03/26 09:50:52;;;;;;;3.90;0.70;;;;;;;;;;4991424;28;20038;-80
2023/03/26 09:53:45;;;;;;;4.25;0.70;;;;;;;;;;4993359;28;20034;-80
2023/03/26 09:56:25;;;;;;;3.92;0.90;;;;;;;;;;4994450;28;20041;-80
2023/03/26 09:59:21;;;;;;;3.28;1.00;;;;;;;;;;5002795;28;20038;-79
2023/03/26 10:02:08;;;;;;;3.38;0.88;;;;;;;;;;5003997;28;20069;-79
2023/03/26 10:04:58;;;;;;;2.67;0.80;;;;;;;;;;4995075;28;20061;-79
2023/03/26 10:08:02;;;;;;;6.20;1.20;;;;;;;;;;4995460;28;20038;-79
2023/03/26 10:10:39;;;;;;;3.22;0.80;;;;;;;;;;4991678;28;20045;-79
2023/03/26 10:13:20;;;;;;;2.97;0.75;;;;;;;;;;4991002;28;20026;-78
2023/03/26 10:16:23;;;;;;;4.97;0.88;;;;;;;;;;4990541;28;20030;-80
2023/03/26 10:19:18;;;;;;;4.85;1.85;;;;;;;;;;4990700;28;20032;-80
2023/03/26 10:22:14;;;;;;;2.53;0.90;;;;;;;;;;4990474;28;20487;-79
2023/03/26 10:24:59;;;;;;;2.75;0.90;;;;;;;;;;4989519;28;20156;-80
2023/03/26 10:27:43;;;;;;;4.75;1.00;;;;;;;;;;4989735;28;20061;-79
2023/03/26 10:30:41;;;;;;;3.22;0.90;;;;;;;;;;4989300;28;20034;-79
2023/03/26 10:33:37;;;;;;;4.65;0.98;;;;;;;;;;4992099;28;20053;-79
2023/03/26 10:36:18;;;;;;;4.53;0.90;;;;;;;;;;4993791;28;20038;-79
2023/03/26 10:38:58;;;;;;;6.90;1.38;;;;;;;;;;4993811;28;20034;-80
2023/03/26 10:41:29;;;;;;;7.38;1.40;;;;;;;;;;4994703;28;20026;-78
2023/03/26 10:44:13;;;;;;;;;;;;;;;;;;4993835;28;20409;-79
2023/03/26 10:46:46;;;;;;;3.38;1.05;;;;;;;;;;4993693;28;19910;-79
2023/03/26 10:49:53;;;;;;;4.75;1.10;;;;;;;;;;4993157;28;20041;-79
2023/03/26 10:52:23;;;;;;;3.00;1.08;;;;;;;;;;4956821;28;20031;-80
2023/03/26 10:55:02;;;;;;;7.75;1.40;;;;;;;;;;4991262;28;20073;-79
2023/03/26 10:57:49;;;;;;;3.72;1.45;;;;;;;;;;4994363;28;20034;-80
2023/03/26 11:00:17;;;;;;;2.80;0.80;;;;;;;;;;4994847;28;20031;-79
2023/03/26 11:03:19;;;;;;;4.85;1.30;;;;;;;;;;4993311;28;20404;-79
2023/03/26 11:06:09;;;;;;;2.85;1.20;;;;;;;;;;4996979;28;20037;-78
2023/03/26 11:08:47;;;;;;;6.55;1.20;;;;;;;;;;4997339;28;20026;-80
2023/03/26 11:11:31;;;;;;;5.32;1.10;;;;;;;;;;4994812;28;20096;-79
2023/03/26 11:14:15;;;;;;;2.95;1.02;;;;;;;;;;4994199;28;20026;-80
2023/03/26 11:16:49;;;;;;;4.93;1.10;;;;;;;;;;4996850;28;20068;-79
2023/03/26 11:19:48;;;;;;;7.53;2.42;;;;;;;;;;4996175;28;20061;-80
2023/03/26 11:22:49;;;;;;;7.32;1.13;;;;;;;;;;4997012;28;20037;-79
2023/03/26 11:25:46;;;;;;;4.18;1.17;;;;;;;;;;4995040;28;20043;-79
2023/03/26 11:28:24;;;;;;;4.40;0.88;;;;;;;;;;4995479;28;20026;-80
2023/03/26 11:31:25;;;;;;;6.07;1.25;;;;;;;;;;4996984;28;20069;-79
2023/03/26 11:33:55;;;;;;;6.90;1.13;;;;;;;;;;4984261;28;20141;-79
2023/03/26 11:36:30;;;;;;;3.17;1.10;;;;;;;;;;4997716;28;20034;-80
2023/03/26 11:39:00;;;;;;;4.18;1.08;;;;;;;;;;5000973;28;20121;-79
2023/03/26 11:41:32;;;;;;;7.07;1.10;;;;;;;;;;5001764;28;20026;-79
2023/03/26 11:44:21;;;;;;;7.68;1.55;;;;;;;;;;5001868;28;20037;-79
2023/03/26 11:46:51;;;;;;;2.53;0.80;;;;;;;;;;5021593;28;20038;-78
2023/03/26 11:49:20;;;;;;;7.40;1.00;;;;;;;;;;5005380;28;20026;-79
2023/03/26 11:51:47;;;;;;;1.13;0.60;;;;;;;;;;5005138;28;20034;-78
2023/03/26 11:54:13;;;;;;;5.65;0.90;;;;;;;;;;5001817;28;20046;-78
2023/03/26 11:56:46;;;;;;;10.27;1.50;;;;;;;;;;4994000;28;20386;-79
2023/03/26 11:59:20;;;;;;;6.07;1.33;;;;;;;;;;4994326;28;20065;-79
2023/03/26 12:01:50;;;;;;;8.90;1.60;;;;;;;;;;4992926;28;20058;-80
2023/03/26 12:04:19;;;;;;;5.05;1.15;;;;;;;;;;4994426;28;20117;-79
2023/03/26 12:06:52;;;;;;;4.35;1.10;;;;;;;;;;4994799;28;20069;-79
2023/03/26 12:09:18;;;;;;;9.75;1.25;;;;;;;;;;4991904;28;20030;-79
2023/03/26 12:11:46;;;;;;;6.53;1.00;;;;;;;;;;4991919;28;20133;-79
2023/03/26 12:14:21;;;;;;;3.13;1.25;;;;;;;;;;4993051;28;20157;-79
2023/03/26 12:17:05;;;;;;;3.60;0.85;;;;;;;;;;5007670;28;20539;-78
2023/03/26 12:19:40;;;;;;;7.63;1.65;;;;;;;;;;4991061;28;20387;-79
2023/03/26 12:22:35;;;;;;;8.23;1.40;;;;;;;;;;4991499;28;20037;-80
2023/03/26 12:25:19;;;;;;;7.53;1.30;;;;;;;;;;4993054;28;20038;-78
2023/03/26 12:27:53;;;;;;;5.53;1.13;;;;;;;;;;4991162;28;20104;-79
2023/03/26 12:30:22;;;;;;;6.25;1.30;;;;;;;;;;4991364;28;20079;-79
2023/03/26 12:32:49;;;;;;;5.45;1.20;;;;;;;;;;4991087;28;20379;-79
2023/03/26 12:35:26;;;;;;;5.45;1.20;;;;;;;;;;4991061;28;20036;-79
2023/03/26 12:37:53;;;;;;;4.00;1.10;;;;;;;;;;4991306;28;20446;-80
2023/03/26 12:40:35;;;;;;;4.07;0.90;;;;;;;;;;4981835;28;20030;-80
2023/03/26 12:43:18;;;;;;;6.57;1.25;;;;;;;;;;4993182;28;20478;-78
2023/03/26 12:45:49;;;;;;;4.57;0.75;;;;;;;;;;5007846;28;20038;-79
2023/03/26 12:48:17;;;;;;;4.82;1.20;;;;;;;;;;5008176;28;20026;-79
2023/03/26 12:51:09;;;;;;;4.13;0.80;;;;;;;;;;4991156;28;20077;-80
2023/03/26 12:53:41;;;;;;;1.85;0.80;;;;;;;;;;4988918;28;20037;-80
2023/03/26 12:56:34;;;;;;;1.38;0.60;;;;;;;;;;4991482;28;20343;-79
2023/03/26 12:59:13;;;;;;;1.90;0.70;;;;;;;;;;5007565;28;20529;-81
2023/03/26 13:01:52;;;;;;;3.30;0.75;;;;;;;;;;4992498;28;20106;-79
2023/03/26 13:04:46;;;;;;;4.47;0.75;;;;;;;;;;4992933;28;20030;-79
2023/03/26 13:07:39;;;;;;;2.53;0.82;;;;;;;;;;4995022;28;20026;-79
2023/03/26 13:10:32;;;;;;;3.50;0.93;;;;;;;;;;4995598;28;20030;-81
2023/03/26 13:13:01;;;;;;;3.65;1.15;;;;;;;;;;4992839;28;20452;-79
2023/03/26 13:15:37;;;;;;;2.30;0.50;;;;;;;;;;4992668;28;20041;-79
2023/03/26 13:18:20;;;;;;;4.03;0.80;;;;;;;;;;4994707;28;20084;-78
2023/03/26 13:21:15;;;;;;;4.78;1.10;;;;;;;;;;4992752;28;20050;-79
2023/03/26 13:24:02;;;;;;;5.90;1.02;;;;;;;;;;4991909;28;20100;-79
2023/03/26 13:27:06;;;;;;;7.97;0.90;;;;;;;;;;4992087;28;20041;-79
2023/03/26 13:29:45;;;;;;;4.70;0.93;;;;;;;;;;4995027;28;20058;-78
2023/03/26 13:32:24;;;;;;;2.67;1.02;;;;;;;;;;4993317;28;20026;-79
2023/03/26 13:35:11;;;;;;;2.58;1.35;;;;;;;;;;4992597;28;20100;-79
2023/03/26 13:38:06;;;;;;;5.10;1.13;;;;;;;;;;4991968;28;20030;-79
2023/03/26 13:41:08;;;;;;;4.78;1.42;;;;;;;;;;4999344;28;20117;-78
2023/03/26 13:43:43;;;;;;;2.67;1.20;;;;;;;;;;5008721;28;20356;-78
2023/03/26 13:46:24;;;;;;;3.80;1.50;;;;;;;;;;4992458;28;20027;-78
2023/03/26 13:49:00;;;;;;;3.70;1.27;;;;;;;;;;4991599;28;20026;-79
2023/03/26 13:51:35;;;;;;;4.45;1.10;;;;;;;;;;5006897;28;20034;-80
2023/03/26 13:54:20;;;;;;;3.95;1.40;;;;;;;;;;4991968;28;20101;-79
2023/03/26 13:56:53;;;;;;;3.55;1.02;;;;;;;;;;4994032;28;20057;-80
2023/03/26 13:59:42;;;;;;;4.50;1.90;;;;;;;;;;5011665;28;20037;-79
2023/03/26 14:02:14;;;;;;;7.63;1.60;;;;;;;;;;4999553;28;20030;-79
2023/03/26 14:04:45;;;;;;;;;;;;;;;;;;5011509;28;20026;-78
2023/03/26 14:07:22;;;;;;;5.47;1.73;;;;;;;;;;5009029;28;19963;-79
2023/03/26 14:10:00;;;;;;;6.10;1.35;;;;;;;;;;5012611;28;20030;-79
2023/03/26 14:12:48;;;;;;;8.52;1.75;;;;;;;;;;4998910;28;20022;-79
2023/03/26 14:15:28;;;;;;;5.85;1.52;;;;;;;;;;5000046;28;20034;-79
2023/03/26 14:18:00;;;;;;;6.03;1.83;;;;;;;;;;5001873;28;20026;-77
2023/03/26 14:20:50;;;;;;;8.98;1.70;;;;;;;;;;4998529;28;20115;-80
2023/03/26 14:23:16;;;;;;;10.13;1.80;;;;;;;;;;4996937;28;20544;-79
2023/03/26 14:26:01;;;;;;;9.93;2.30;;;;;;;;;;4994389;28;20026;-79
2023/03/26 14:29:08;;;;;;;10.73;2.47;;;;;;;;;;4993242;28;20037;-79
2023/03/26 14:32:02;;;;;;;3.85;1.58;;;;;;;;;;5010320;28;20030;-79
2023/03/26 14:34:33;;;;;;;7.97;1.70;;;;;;;;;;5010705;28;20577;-79
2023/03/26 14:37:26;;;;;;;4.85;1.83;;;;;;;;;;4994769;28;20040;-80
2023/03/26 14:39:52;;;;;;;7.03;2.13;;;;;;;;;;4993578;28;20026;-79
2023/03/26 14:42:40;;;;;;;8.65;2.13;;;;;;;;;;4993822;28;20058;-79
2023/03/26 14:45:50;;;;;;;4.85;1.55;;;;;;;;;;4993444;28;20023;-79
2023/03/26 14:48:41;;;;;;;7.00;1.60;;;;;;;;;;4983977;28;20053;-79
2023/03/26 14:51:30;;;;;;;5.63;1.40;;;;;;;;;;4992611;28;20126;-80
2023/03/26 14:54:01;;;;;;;6.93;2.20;;;;;;;;;;4993055;28;20489;-80
2023/03/26 14:56:45;;;;;;;6.25;1.60;;;;;;;;;;4993111;28;20502;-79
2023/03/26 14:59:38;;;;;;;4.43;1.60;;;;;;;;;;4994007;28;20061;-79
2023/03/26 15:02:43;;;;;;;9.90;2.58;;;;;;;;;;4992542;28;20532;-79
2023/03/26 15:05:36;;;;;;;9.00;1.90;;;;;;;;;;4992824;28;20533;-79
2023/03/26 15:08:25;;;;;;;6.95;1.75;;;;;;;;;;4996827;28;20378;-79
2023/03/26 15:11:12;;;;;;;7.05;1.65;;;;;;;;;;4994011;28;20145;-80
2023/03/26 15:13:43;;;;;;;5.97;1.58;;;;;;;;;;4994017;28;20033;-78
2023/03/26 15:16:39;;;;;;;6.03;1.83;;;;;;;;;;4993597;28;20478;-79
2023/03/26 15:19:11;;;;;;;5.00;1.42;;;;;;;;;;4991733;28;20130;-79
2023/03/26 15:22:06;;;;;;;11.18;5.13;;;;;;;;;;4992752;28;20034;-79
2023/03/26 15:24:34;;;;;;;4.55;1.60;;;;;;;;;;4984279;28;20042;-78
2023/03/26 15:27:43;;;;;;;8.73;1.92;;;;;;;;;;4994086;28;20030;-80
2023/03/26 15:30:18;;;;;;;5.65;1.50;;;;;;;;;;4983714;28;20126;-79
2023/03/26 15:33:17;;;;;;;5.05;1.20;;;;;;;;;;4993906;28;20030;-81